Stations météo

réclame
Mon MeteoGroup
Embrun, France (7591): Température de l'air & dewpoint: 13.07.2018 15:00:00 - 19.07.2018 15:00:00 (CEST)Embrun, France (7591): Température de l'air 5cm: 13.07.2018 15:00:00 - 19.07.2018 15:00:00 (CEST)Embrun, France (7591): Température de l'air -20cm & Température de l'air -100cm: 13.07.2018 15:00:00 - 19.07.2018 15:00:00 (CEST)Embrun, France (7591): Vitesse du vent & gusts: 13.07.2018 15:00:00 - 19.07.2018 15:00:00 (CEST)Embrun, France (7591): Direction du vent: 13.07.2018 15:00:00 - 19.07.2018 15:00:00 (CEST)Embrun, France (7591): visibility: 13.07.2018 15:00:00 - 19.07.2018 15:00:00 (CEST)Embrun, France (7591): Ensoleillement: 13.07.2018 15:00:00 - 19.07.2018 15:00:00 (CEST)Embrun, France (7591): Quantités de précipitations: 13.07.2018 15:00:00 - 19.07.2018 15:00:00 (CEST)
Date & Time tt [°C] td [°C] tt 5cm [°C] tt -20cm [°C] tt -100cm [°C] ff [km/h] ff [knt] fx [km/h] fx [knt] dd vv [km] sd [min] rr [mm]
19.07.2018 15:00:00 30,4 8,7 37,7 21,5 18,7 19 10 36 20 SW 20 60 0,0
19.07.2018 14:00:00 30,3 10,3 37,6 21,4 18,7 18 10 37 20 SW 20 60 0,0
19.07.2018 13:00:00 29,2 6,5 35,4 21,4 18,7 18 10 32 18 SSW 20 60 0,0
19.07.2018 12:00:00 27,5 12,7 33,0 21,5 18,7 14 8 32 17 SSW 20 60 0,0
19.07.2018 11:00:00 26,0 11,4 32,6 21,5 18,7 10 6 18 10 S 20 60 0,0
19.07.2018 10:00:00 24,3 10,9 22,6 21,6 18,7 7 4 28 15 ESE 20 60 0,0
19.07.2018 09:00:00 21,4 10,2 19,8 21,6 18,7 17 9 33 18 N 20 60 0,0
19.07.2018 08:00:00 19,3 9,8 16,2 21,7 18,7 20 11 32 17 N 20 21 0,0
19.07.2018 07:00:00 17,3 9,5 15,6 21,8 18,7 14 7 28 15 NNE 20 0 0,0
19.07.2018 06:00:00 17,3 9,5 15,1 21,9 18,7 14 8 20 11 NNE 20 0 0,0
19.07.2018 05:00:00 17,0 9,9 14,4 21,9 18,7 10 5 14 8 NE 20 0 0,0
19.07.2018 04:00:00 17,6 10,0 14,8 22,0 18,7 5 3 10 5 N 20 0 0,0
19.07.2018 03:00:00 18,7 10,0 15,9 22,0 18,7 5 3 9 5 NNW 20 0 0,0
19.07.2018 02:00:00 20,2 9,4 17,9 22,1 18,7 7 4 17 9 WNW 20 0 0,0
19.07.2018 01:00:00 21,2 8,8 18,3 22,1 18,8 5 3 15 8 WSW 20 0 0,0
19.07.2018 00:00:00 22,2 8,3 19,8 22,1 18,8 2 1 15 8 S 20 0 0,0
18.07.2018 23:00:00 22,7 8,8 20,9 22,0 18,7 7 4 13 7 SSW 20 0 0,0
18.07.2018 22:00:00 24,2 8,6 22,7 21,9 18,8 8 4 26 14 S 20 0 0,0
18.07.2018 21:00:00 26,2 8,2 25,4 21,8 18,7 16 8 32 18 WSW 20 0 0,0
18.07.2018 20:00:00 27,7 8,0 27,1 21,6 18,7 12 6 29 16 SW 20 49 0,0
18.07.2018 19:00:00 29,4 9,0 31,5 21,5 18,8 16 8 35 19 SW 20 60 0,0
18.07.2018 18:00:00 30,1 9,0 33,5 21,4 18,8 16 9 32 17 WSW 20 60 0,0
18.07.2018 17:00:00 30,4 9,8 35,8 21,2 18,8 16 9 33 18 SW 20 60 0,0
18.07.2018 16:00:00 30,1 9,6 37,0 21,1 18,8 18 10 38 21 SSW 20 60 0,0
18.07.2018 15:00:00 30,1 8,5 37,1 21,0 18,8 15 8 40 22 WSW 20 60 0,0
18.07.2018 14:00:00 29,5 10,1 36,3 20,9 18,8 17 9 32 18 SSW 20 60 0,0
18.07.2018 13:00:00 28,9 9,6 36,4 20,9 18,8 16 9 29 16 SSW 20 60 0,0
18.07.2018 12:00:00 26,4 11,7 34,1 21,0 18,8 7 4 15 8 SSW 20 60 0,0
18.07.2018 11:00:00 24,6 11,2 31,4 21,0 18,8 6 4 14 8 SSW 20 60 0,0
18.07.2018 10:00:00 22,3 10,1 20,7 21,1 18,8 10 6 26 14 ENE 20 60 0,0
18.07.2018 09:00:00 20,0 10,1 18,3 21,2 18,8 14 8 27 15 NNE 20 60 0,0
18.07.2018 08:00:00 17,4 10,0 13,8 21,3 18,8 13 7 23 12 NE 20 24 0,0
18.07.2018 07:00:00 14,9 9,3 12,4 21,4 18,8 10 5 20 11 NE 20 0 0,0
18.07.2018 06:00:00 15,2 9,5 12,7 21,5 18,8 4 2 19 10 ENE 20 0 0,0
18.07.2018 05:00:00 16,2 9,4 13,3 21,5 18,8 14 8 22 12 NNE 20 0 0,0
18.07.2018 04:00:00 16,1 10,0 13,9 21,6 18,8 10 5 16 9 NNE 20 0 0,0
18.07.2018 03:00:00 16,6 10,7 13,9 21,7 18,8 9 5 15 8 NE 20 0 0,0
18.07.2018 02:00:00 17,1 11,4 13,8 21,7 18,8 5 3 10 6 NNE 20 0 0,0
18.07.2018 01:00:00 17,6 11,4 14,7 21,7 18,8 2 1 8 4 N 20 0 0,0
18.07.2018 00:00:00 18,6 11,9 15,4 21,7 18,8 3 2 7 4 NNW 20 0 0,0
17.07.2018 23:00:00 19,8 11,8 16,7 21,6 18,8 3 2 9 5 NW 20 0 0,0
17.07.2018 22:00:00 21,8 11,8 19,1 21,6 18,8 2 1 20 11 SSW 20 0 0,0
17.07.2018 21:00:00 23,9 12,2 22,9 21,5 18,8 10 6 25 13 SSW 20 0 0,0
17.07.2018 20:00:00 26,1 11,8 25,7 21,4 18,8 12 7 31 17 SSW 20 47 0,0
17.07.2018 19:00:00 27,6 9,9 28,3 21,2 18,8 16 9 36 19 SW 20 47 0,0
17.07.2018 18:00:00 28,5 9,7 29,3 21,0 18,8 18 10 36 19 SW 20 54 0,0
17.07.2018 17:00:00 29,5 9,1 35,0 20,9 18,8 18 10 34 19 SW 20 60 0,0
17.07.2018 16:00:00 28,9 9,6 32,6 20,8 18,9 18 10 35 19 SW 20 53 0,0
17.07.2018 15:00:00 28,9 8,6 35,4 20,7 18,8 17 9 35 19 SSW 20 60 0,0
17.07.2018 14:00:00 27,9 9,2 34,2 20,6 18,8 21 12 38 21 SW 20 60 0,0
17.07.2018 13:00:00 26,8 8,2 33,1 20,6 18,8 16 8 31 17 SSW 20 60 0,0
17.07.2018 12:00:00 25,6 9,0 31,3 20,6 18,9 14 7 24 13 SSW 20 60 0,0
17.07.2018 11:00:00 22,6 11,6 27,9 20,7 18,8 10 5 22 12 SSW 20 60 0,0
17.07.2018 10:00:00 20,8 10,9 18,7 20,8 18,8 5 3 14 7 SSW 20 60 0,0
17.07.2018 09:00:00 18,6 10,4 15,8 20,9 18,9 4 2 12 6 E 20 60 0,0
17.07.2018 08:00:00 15,8 11,2 10,4 21,0 18,8 0 0 9 5 N 20 27 0,0
17.07.2018 07:00:00 12,5 9,5 10,0 21,1 18,8 3 2 7 4 N 20 0 0,0
17.07.2018 06:00:00 12,5 10,2 9,8 21,1 18,8 4 2 8 4 NNW 20 0 0,0
17.07.2018 05:00:00 13,0 10,5 10,8 21,2 18,8 5 3 13 7 NNE 20 0 0,0
17.07.2018 04:00:00 13,5 11,5 11,8 21,3 18,8 5 3 9 5 N 20 0 0,0
17.07.2018 03:00:00 14,1 11,4 12,0 21,4 18,8 4 2 11 6 S 20 0 0,0
17.07.2018 02:00:00 14,5 11,6 12,8 21,4 18,8 5 3 16 9 N 20 0 0,0
17.07.2018 01:00:00 15,4 11,4 13,1 21,5 18,9 8 4 13 7 N 20 0 0,0
17.07.2018 00:00:00 15,4 12,5 13,7 21,5 18,8 4 2 8 4 ESE 20 0 0,0
16.07.2018 23:00:00 16,7 12,4 14,1 21,5 18,8 0 0 7 4 N 20 0 0,0
16.07.2018 22:00:00 17,8 13,3 15,6 21,5 18,9 5 3 9 5 NNE 20 0 0,0
16.07.2018 21:00:00 19,5 13,2 18,4 21,5 18,8 0 0 13 7 N 20 28 0,0
16.07.2018 20:00:00 20,8 12,5 21,3 21,5 18,8 6 3 23 12 S 20 50 0,0
16.07.2018 19:00:00 21,5 12,3 23,0 21,5 18,8 9 5 19 11 SSW 20 5 0,0
16.07.2018 18:00:00 22,9 11,9 25,3 21,5 18,8 5 3 18 10 S 20 47 0,0
16.07.2018 17:00:00 22,0 12,5 24,7 21,6 18,8 11 6 24 13 NE 20 60 0,0
16.07.2018 16:00:00 19,6 14,8 16,6 21,6 18,8 9 5 36 19 ENE 20 9 0,0
16.07.2018 15:00:00 16,8 14,4 15,3 21,7 18,8 11 6 26 14 NE 20 0 0,6
16.07.2018 14:00:00 16,1 13,9 15,2 21,7 18,8 20 11 32 17 N 14 0 1,8
16.07.2018 13:00:00 16,1 13,9 15,1 21,8 18,8 5 3 33 18 S 5 0 2,4
16.07.2018 12:00:00 19,0 12,7 16,2 21,9 18,8 7 4 22 12 SSW 20 0 0,0
16.07.2018 11:00:00 19,5 10,8 20,7 22,0 18,8 13 7 33 18 NNE 20 4 0,0
16.07.2018 10:00:00 20,5 10,9 20,0 22,1 18,8 18 10 35 19 NNE 20 26 0,0
16.07.2018 09:00:00 17,8 10,4 17,7 22,1 18,8 22 12 48 26 NNE 20 39 0,0
16.07.2018 08:00:00 17,1 10,2 15,4 22,2 18,8 27 15 47 25 NNE 20 30 0,0
16.07.2018 07:00:00 15,7 10,0 15,1 22,3 18,8 24 13 40 21 NNE 20 0 0,0
16.07.2018 06:00:00 16,2 10,3 15,3 22,4 18,8 26 14 48 26 N 20 0 0,0
16.07.2018 05:00:00 16,9 10,3 16,1 22,5 18,8 29 16 41 22 N 20 0 0,0
16.07.2018 04:00:00 17,4 10,3 16,6 22,6 18,8 29 16 41 22 N 20 0 0,0
16.07.2018 03:00:00 18,3 9,9 17,4 22,6 18,8 21 11 50 27 NNE 20 0 0,0
16.07.2018 02:00:00 19,1 10,1 16,5 22,7 18,8 29 15 45 25 N 20 0 0,0
16.07.2018 01:00:00 20,1 11,3 17,5 22,7 18,8 16 8 28 15 N 20 0 0,0
16.07.2018 00:00:00 20,3 11,0 19,0 22,7 18,8 16 9 31 17 N 20 0 0,0
15.07.2018 23:00:00 21,5 10,6 19,3 22,7 18,8 10 5 22 12 NNE 20 0 0,0
15.07.2018 22:00:00 23,6 11,9 22,4 22,6 18,8 8 5 14 8 S 20 0 0,0
15.07.2018 21:00:00 25,6 10,6 24,6 22,6 18,8 8 5 26 14 SSW 20 0 0,0
15.07.2018 20:00:00 26,0 11,7 25,8 22,5 18,8 11 6 26 14 SSW 20 22 0,0
15.07.2018 19:00:00 27,9 9,7 28,7 22,4 18,8 14 7 29 15 WSW 20 47 0,0
15.07.2018 18:00:00 28,5 9,2 30,9 22,3 18,8 18 10 32 17 WSW 20 60 0,0
15.07.2018 17:00:00 29,0 9,7 34,6 22,2 18,8 17 9 40 22 SW 20 60 0,0
15.07.2018 16:00:00 28,5 9,7 35,2 22,1 18,8 16 9 34 18 WSW 20 60 0,0
15.07.2018 15:00:00 28,1 10,3 34,5 22,1 18,7 14 8 35 19 SW 20 60 0,0
15.07.2018 14:00:00 26,8 11,7 33,8 22,1 18,8 14 7 23 12 SSW 20 60 0,0
15.07.2018 13:00:00 24,6 11,2 26,6 22,1 18,7 6 4 31 17 S 20 48 0,0
15.07.2018 12:00:00 21,7 15,1 19,5 22,2 18,7 19 10 35 19 NNE 20 38 0,0
15.07.2018 11:00:00 17,6 14,3 15,6 22,3 18,7 16 8 36 19 NNE 20 2 0,0
15.07.2018 10:00:00 16,1 13,8 14,5 22,4 18,8 11 6 34 18 NE 16 0 2,0
15.07.2018 09:00:00 15,6 13,8 14,7 22,5 18,8 19 10 48 26 SSW 8 17 4,1
15.07.2018 08:00:00 17,4 11,0 15,4 22,6 18,8 6 3 26 14 ENE 20 32 0,0
15.07.2018 07:00:00 15,6 10,6 13,9 22,6 18,7 13 7 24 13 NNE 20 15 0,0
15.07.2018 06:00:00 15,5 10,7 13,8 22,7 18,7 10 5 17 9 NNE 20 0 0,0
15.07.2018 05:00:00 15,7 10,9 14,0 22,7 18,7 9 5 20 11 NE 20 0 0,0
15.07.2018 04:00:00 16,9 11,0 15,3 22,8 18,7 13 7 26 14 NNE 20 0 0,0
15.07.2018 03:00:00 17,2 11,5 15,5 22,9 18,7 11 6 19 10 NE 20 0 0,0
15.07.2018 02:00:00 18,9 11,5 16,8 22,9 18,7 11 6 26 14 NNE 20 0 0,0
15.07.2018 01:00:00 20,1 11,6 18,5 22,9 18,7 14 8 23 13 N 20 0 0,0
15.07.2018 00:00:00 21,3 11,3 19,3 22,9 18,7 11 6 26 14 N 20 0 0,0
14.07.2018 23:00:00 21,7 11,7 18,9 22,8 18,7 6 3 12 7 N 20 0 0,0
14.07.2018 22:00:00 23,6 11,9 21,0 22,8 18,7 2 1 14 7 SSW 20 0 0,0
14.07.2018 21:00:00 25,5 12,7 24,8 22,7 18,7 8 5 21 11 SSW 20 12 0,0
14.07.2018 20:00:00 27,6 10,3 27,6 22,6 18,7 10 5 26 14 SW 20 34 0,0
14.07.2018 19:00:00 29,0 12,0 28,7 22,5 18,7 12 7 26 14 SSW 20 27 0,0
14.07.2018 18:00:00 28,0 11,5 28,9 22,4 18,7 16 8 29 16 SSW 20 15 0,0
14.07.2018 17:00:00 29,7 10,8 27,0 22,3 18,7 16 8 36 19 SSW 20 23 0,0
14.07.2018 16:00:00 30,9 9,7 33,9 22,3 18,7 19 10 36 19 SW 20 44 0,0
14.07.2018 15:00:00 29,9 9,4 31,9 22,2 18,7 21 11 36 20 SW 20 30 0,0
14.07.2018 14:00:00 28,7 9,9 30,7 22,2 18,7 15 8 29 16 W 20 1 0,0
14.07.2018 13:00:00 27,9 10,6 30,5 22,2 18,7 11 6 19 10 SSW 20 4 0,0
14.07.2018 12:00:00 27,4 10,6 30,8 22,2 18,7 11 6 18 10 SSW 20 40 0,0
14.07.2018 11:00:00 25,7 10,7 30,6 22,3 18,7 6 3 14 7 SW 20 47 0,0
14.07.2018 10:00:00 23,9 9,5 22,1 22,4 18,7 4 2 30 16 ENE 20 53 0,0
14.07.2018 09:00:00 20,7 9,0 17,7 22,5 18,7 19 11 40 22 NNE 20 50 0,0
14.07.2018 08:00:00 17,7 8,5 17,0 22,6 18,6 16 9 32 17 NNE 18 16 0,0
14.07.2018 07:00:00 17,2 8,3 13,3 22,7 18,6 21 12 32 18 N 20 2 0,0
14.07.2018 06:00:00 15,2 8,2 12,5 22,8 18,6 6 3 11 6 NE 20 0 0,0
14.07.2018 05:00:00 15,6 8,3 12,5 22,9 18,7 4 2 11 6 NE 20 0 0,0
14.07.2018 04:00:00 16,1 8,6 13,0 22,9 18,6 8 5 18 10 NNE 20 0 0,0
14.07.2018 03:00:00 16,8 9,2 13,6 23,0 18,7 5 3 7 4 N 20 0 0,0
14.07.2018 02:00:00 17,3 9,2 13,8 23,0 18,7 2 1 4 2 N 20 0 0,0
14.07.2018 01:00:00 18,4 9,2 15,0 23,0 18,6 3 2 7 4 N 20 0 0,0
14.07.2018 00:00:00 20,7 9,0 16,9 23,0 18,6 6 4 12 6 SW 20 0 0,0
13.07.2018 23:00:00 21,5 8,4 17,8 23,0 18,7 0 0 8 4 N 20 0 0,0
13.07.2018 22:00:00 23,0 8,7 20,1 22,9 18,6 5 3 9 5 W 20 0 0,0
13.07.2018 21:00:00 24,8 8,7 22,9 22,8 18,6 3 2 23 13 SSE 20 0 0,0
13.07.2018 20:00:00 27,5 6,8 27,1 22,7 18,6 14 8 26 14 SW 20 37 0,0
13.07.2018 19:00:00 28,8 6,8 29,2 22,5 18,6 10 6 32 17 SSW 20 45 0,0
13.07.2018 18:00:00 29,3 7,8 29,7 22,4 18,6 15 8 31 17 SSW 20 23 0,0
13.07.2018 17:00:00 29,7 8,1 32,4 22,3 18,6 19 10 36 19 SW 20 56 0,0
13.07.2018 16:00:00 29,7 8,1 34,2 22,2 18,6 16 9 35 19 SSW 20 56 0,0
13.07.2018 15:00:00 29,3 7,2 36,1 22,1 18,6 19 10 36 20 SW 20 60 0,0

tt = Température de l'air
td = dewpoint
tt 5cm = Température de l'air 5cm
tt -20cm = Température de l'air -20cm
tt -100cm = Température de l'air -100cm
ff = Vitesse du vent
fx = gusts
dd = Direction du vent
vv = visibility
sd = Ensoleillement
rr = Quantités de précipitations

stations d'obs. à proximité